Time;durP1;ratioP1;P1;durP2;ratioP2;P2;SDS_P1;SDS_P2;PMS_P1;PMS_P2;Temp;Humidity;BMP_temperature;BMP_pressure;BME280_temperature;BME280_humidity;BME280_pressure;Samples;Min_cycle;Max_cycle;Signal;HPM_P1;HPM_P2
2023/08/27 00:01:27;;;;;;;7.10;1.75;;;18.20;99.90;;;;;;5072523;28;20025;-59
2023/08/27 00:03:53;;;;;;;3.42;1.42;;;18.20;99.90;;;;;;5072534;28;20029;-60
2023/08/27 00:06:18;;;;;;;4.20;1.70;;;18.10;99.90;;;;;;5072302;28;20028;-59
2023/08/27 00:08:44;;;;;;;5.10;1.73;;;18.00;99.90;;;;;;5072768;28;20485;-60
2023/08/27 00:11:10;;;;;;;3.92;1.80;;;17.90;99.90;;;;;;5072316;28;20485;-60
2023/08/27 00:13:36;;;;;;;5.57;1.50;;;17.90;99.90;;;;;;5072209;28;20054;-60
2023/08/27 00:16:07;;;;;;;4.88;1.60;;;17.90;99.90;;;;;;5067129;28;20026;-60
2023/08/27 00:18:33;;;;;;;5.03;1.50;;;17.80;99.90;;;;;;5092677;28;20036;-60
2023/08/27 00:20:58;;;;;;;5.30;1.70;;;17.80;99.90;;;;;;5075763;28;20393;-60
2023/08/27 00:23:24;;;;;;;4.07;1.70;;;17.80;99.90;;;;;;5072013;28;20493;-60
2023/08/27 00:25:50;;;;;;;3.95;1.80;;;17.70;99.90;;;;;;5071917;28;20032;-60
2023/08/27 00:28:16;;;;;;;6.43;1.75;;;17.60;99.90;;;;;;5071586;28;20044;-60
2023/08/27 00:30:42;;;;;;;5.45;1.95;;;17.60;99.90;;;;;;5071945;28;20028;-60
2023/08/27 00:33:08;;;;;;;4.78;1.45;;;17.60;99.90;;;;;;5072139;28;20451;-60
2023/08/27 00:35:33;;;;;;;4.13;1.40;;;17.50;99.90;;;;;;5071799;28;20096;-60
2023/08/27 00:37:59;;;;;;;3.10;1.80;;;17.60;99.90;;;;;;5071674;28;20044;-60
2023/08/27 00:40:28;;;;;;;5.03;1.50;;;17.50;99.90;;;;;;5071921;28;20055;-61
2023/08/27 00:42:55;;;;;;;7.00;2.03;;;17.50;99.90;;;;;;5071232;28;20044;-61
2023/08/27 00:45:21;;;;;;;4.65;1.50;;;17.50;99.90;;;;;;5071979;28;20039;-61
2023/08/27 00:47:46;;;;;;;6.35;1.85;;;17.50;99.90;;;;;;5071575;28;20033;-61
2023/08/27 00:50:13;;;;;;;6.43;2.08;;;17.50;99.90;;;;;;5071688;28;20020;-60
2023/08/27 00:52:39;;;;;;;7.82;1.80;;;17.60;99.90;;;;;;5054042;28;20508;-61
2023/08/27 00:55:05;;;;;;;4.47;1.83;;;17.70;99.90;;;;;;5071584;28;20108;-60
2023/08/27 00:57:33;;;;;;;8.43;2.17;;;17.80;99.90;;;;;;5062829;28;20095;-60
2023/08/27 00:59:59;;;;;;;8.00;2.05;;;17.90;99.90;;;;;;5071335;28;20036;-60
2023/08/27 01:02:25;;;;;;;5.32;1.80;;;18.00;99.90;;;;;;5071089;28;20105;-61
2023/08/27 01:04:50;;;;;;;6.00;1.73;;;18.00;99.90;;;;;;5071324;28;20078;-61
2023/08/27 01:07:52;;;;;;;8.48;2.00;;;18.00;99.90;;;;;;5071428;28;20029;-60
2023/08/27 01:10:22;;;;;;;6.60;1.70;;;18.20;99.90;;;;;;5068299;28;20569;-61
2023/08/27 01:13:05;;;;;;;4.97;1.80;;;18.20;99.90;;;;;;5070834;28;20024;-61
2023/08/27 01:15:32;;;;;;;7.00;2.17;;;18.20;99.90;;;;;;5071465;28;20473;-61
2023/08/27 01:18:03;;;;;;;4.80;1.83;;;18.20;99.90;;;;;;5071163;28;20484;-60
2023/08/27 01:20:30;;;;;;;7.18;2.00;;;18.20;99.90;;;;;;5071092;28;20469;-60
2023/08/27 01:22:56;;;;;;;6.90;2.10;;;18.20;99.90;;;;;;5071028;28;20024;-61
2023/08/27 01:25:30;;;;;;;5.53;1.85;;;18.20;99.90;;;;;;5071609;28;20035;-61
2023/08/27 01:28:11;;;;;;;7.05;1.95;;;18.10;99.90;;;;;;5070830;28;20040;-60
2023/08/27 01:30:43;;;;;;;7.22;2.25;;;18.20;99.90;;;;;;5071169;28;20067;-60
2023/08/27 01:33:15;;;;;;;5.68;2.20;;;18.50;99.90;;;;;;5071013;28;20497;-60
2023/08/27 01:35:41;;;;;;;5.20;2.03;;;18.50;99.90;;;;;;5070775;28;20028;-61
2023/08/27 01:38:07;;;;;;;9.18;2.42;;;18.60;99.90;;;;;;5053109;28;20107;-60
2023/08/27 01:40:32;;;;;;;7.05;2.35;;;18.60;99.90;;;;;;5071374;28;20445;-60
2023/08/27 01:42:58;;;;;;;6.47;2.20;;;18.60;99.90;;;;;;5070644;28;20477;-60
2023/08/27 01:45:23;;;;;;;7.53;2.20;;;18.50;99.90;;;;;;5070919;28;20397;-61
2023/08/27 01:47:49;;;;;;;5.25;1.90;;;18.50;99.90;;;;;;5070915;28;20389;-61
2023/08/27 01:50:15;;;;;;;6.95;1.85;;;18.50;99.90;;;;;;5070922;28;20035;-61
2023/08/27 01:52:41;;;;;;;7.93;2.53;;;18.60;99.90;;;;;;5070823;28;20055;-61
2023/08/27 01:55:07;;;;;;;8.65;2.30;;;18.70;99.90;;;;;;5071378;28;20012;-60
2023/08/27 01:57:33;;;;;;;7.95;2.45;;;18.70;99.90;;;;;;5070248;28;20040;-60
2023/08/27 01:59:59;;;;;;;6.57;2.10;;;18.60;99.90;;;;;;5070903;28;20031;-61
2023/08/27 02:02:25;;;;;;;7.15;2.17;;;18.50;99.90;;;;;;5070623;28;20035;-60
2023/08/27 02:04:50;;;;;;;5.05;1.70;;;18.60;99.90;;;;;;5071087;28;20428;-60
2023/08/27 02:07:19;;;;;;;7.85;2.20;;;18.60;99.90;;;;;;5070881;28;20039;-61
2023/08/27 02:09:45;;;;;;;7.75;2.20;;;18.60;99.90;;;;;;5070343;28;20024;-60
2023/08/27 02:12:11;;;;;;;5.85;2.08;;;18.70;99.90;;;;;;5072289;28;20028;-61
2023/08/27 02:14:38;;;;;;;7.15;1.92;;;18.90;99.90;;;;;;5074821;28;20079;-60
2023/08/27 02:17:04;;;;;;;5.72;2.10;;;19.10;99.90;;;;;;5074586;28;20447;-60
2023/08/27 02:19:29;;;;;;;5.45;1.80;;;19.20;99.90;;;;;;5074362;28;20028;-61
2023/08/27 02:21:55;;;;;;;5.57;1.98;;;19.30;99.90;;;;;;5074841;28;20025;-61
2023/08/27 02:24:21;;;;;;;6.03;1.60;;;19.30;99.90;;;;;;5073789;28;20037;-60
2023/08/27 02:26:46;;;;;;;4.32;1.77;;;19.30;99.90;;;;;;5074403;28;20040;-61
2023/08/27 02:29:13;;;;;;;5.38;1.60;;;19.40;99.90;;;;;;5074587;28;20024;-61
2023/08/27 02:31:38;;;;;;;5.85;1.70;;;19.40;99.90;;;;;;5074125;28;20025;-61
2023/08/27 02:34:04;;;;;;;5.70;1.90;;;19.40;99.90;;;;;;5074274;28;20029;-60
2023/08/27 02:36:30;;;;;;;3.92;1.55;;;19.40;99.90;;;;;;5073970;28;20028;-60
2023/08/27 02:38:55;;;;;;;7.20;1.58;;;19.50;99.90;;;;;;5073803;28;20093;-61
2023/08/27 02:41:21;;;;;;;3.42;1.55;;;19.40;99.90;;;;;;5074086;28;20087;-60
2023/08/27 02:43:47;;;;;;;4.40;1.60;;;19.30;99.90;;;;;;5074235;28;20043;-61
2023/08/27 02:46:12;;;;;;;4.72;1.45;;;19.20;99.90;;;;;;5073984;28;20025;-61
2023/08/27 02:48:38;;;;;;;3.67;1.35;;;19.10;99.90;;;;;;5074053;28;20137;-60
2023/08/27 02:51:03;;;;;;;3.53;1.40;;;19.00;99.90;;;;;;5073908;28;20024;-59
2023/08/27 02:53:29;;;;;;;5.35;1.40;;;18.90;99.90;;;;;;5073553;28;20028;-60
2023/08/27 02:55:55;;;;;;;4.00;1.30;;;18.90;99.90;;;;;;5073760;28;20028;-60
2023/08/27 02:58:21;;;;;;;4.07;1.70;;;18.80;99.90;;;;;;5073463;28;20040;-60
2023/08/27 03:00:47;;;;;;;3.83;1.42;;;18.70;99.90;;;;;;5073669;28;20500;-60
2023/08/27 03:03:13;;;;;;;5.60;1.65;;;18.70;99.90;;;;;;5055946;28;20408;-60
2023/08/27 03:05:40;;;;;;;5.03;1.60;;;18.60;99.90;;;;;;5073577;28;20544;-60
2023/08/27 03:08:06;;;;;;;7.65;2.13;;;18.60;99.90;;;;;;5073038;28;20024;-60
2023/08/27 03:10:31;;;;;;;7.38;1.92;;;18.60;99.90;;;;;;5073486;28;20503;-60
2023/08/27 03:12:57;;;;;;;6.75;2.30;;;18.30;99.90;;;;;;5073734;28;20532;-59
2023/08/27 03:15:23;;;;;;;4.30;1.75;;;18.20;99.90;;;;;;5073188;28;20041;-60
2023/08/27 03:17:48;;;;;;;9.65;2.00;;;18.10;99.90;;;;;;5073640;28;20042;-60
2023/08/27 03:20:14;;;;;;;5.82;2.25;;;17.90;99.90;;;;;;5073276;28;20060;-60
2023/08/27 03:22:39;;;;;;;5.35;1.98;;;17.90;99.90;;;;;;5072637;28;20021;-60
2023/08/27 03:25:06;;;;;;;6.70;2.03;;;17.90;99.90;;;;;;5073323;28;20031;-60
2023/08/27 03:27:35;;;;;;;9.00;1.92;;;17.80;99.90;;;;;;5073303;28;20048;-60
2023/08/27 03:30:02;;;;;;;7.35;2.20;;;17.70;99.90;;;;;;5073221;28;20039;-59
2023/08/27 03:32:28;;;;;;;6.72;2.33;;;17.80;99.90;;;;;;5073088;28;20031;-60
2023/08/27 03:34:54;;;;;;;6.90;2.15;;;17.90;99.90;;;;;;5073334;28;20409;-60
2023/08/27 03:37:19;;;;;;;5.75;1.92;;;18.00;99.90;;;;;;5072735;28;20037;-60
2023/08/27 03:39:45;;;;;;;6.13;2.15;;;18.10;99.90;;;;;;5072940;28;20025;-60
2023/08/27 03:42:11;;;;;;;6.40;2.10;;;18.10;99.90;;;;;;5072717;28;20676;-60
2023/08/27 03:44:36;;;;;;;6.38;2.00;;;18.10;99.90;;;;;;5073396;28;20051;-60
2023/08/27 03:47:06;;;;;;;4.45;1.90;;;18.20;99.90;;;;;;5072773;28;20043;-60
2023/08/27 03:49:32;;;;;;;3.80;1.90;;;18.30;99.90;;;;;;5065016;28;20028;-60
2023/08/27 03:51:57;;;;;;;6.60;1.95;;;18.20;99.90;;;;;;5072430;28;20493;-60
2023/08/27 03:54:23;;;;;;;7.03;2.08;;;18.20;99.90;;;;;;5072647;28;20020;-60
2023/08/27 03:56:49;;;;;;;4.65;2.10;;;18.10;99.90;;;;;;5072462;28;20132;-60
2023/08/27 03:59:15;;;;;;;5.28;2.03;;;18.20;99.90;;;;;;5072550;28;20115;-60
2023/08/27 04:01:41;;;;;;;5.75;2.30;;;18.20;99.90;;;;;;5072609;28;20028;-60
2023/08/27 04:04:06;;;;;;;4.50;1.90;;;18.00;99.90;;;;;;5072584;28;20562;-59
2023/08/27 04:06:32;;;;;;;5.65;2.35;;;17.90;99.90;;;;;;5072377;28;20025;-58
2023/08/27 04:08:58;;;;;;;5.93;2.35;;;17.70;99.90;;;;;;5072454;28;20025;-60
2023/08/27 04:11:23;;;;;;;4.85;2.00;;;17.60;99.90;;;;;;5072114;28;20032;-60
2023/08/27 04:13:50;;;;;;;6.60;2.20;;;17.50;99.90;;;;;;5072384;28;20056;-60
2023/08/27 04:16:16;;;;;;;4.00;1.90;;;17.40;99.90;;;;;;5072376;28;20124;-60
2023/08/27 04:18:41;;;;;;;4.63;2.13;;;17.40;99.90;;;;;;5072193;28;20131;-60
2023/08/27 04:21:07;;;;;;;5.57;2.13;;;17.30;99.90;;;;;;5053714;28;20455;-60
2023/08/27 04:23:33;;;;;;;4.25;1.92;;;17.30;99.90;;;;;;5072067;28;20104;-60
2023/08/27 04:25:58;;;;;;;6.00;2.10;;;17.20;99.90;;;;;;5071944;28;20449;-60
2023/08/27 04:28:24;;;;;;;5.80;2.08;;;17.10;99.90;;;;;;5072054;28;20111;-60
2023/08/27 04:30:50;;;;;;;6.38;2.17;;;17.10;99.90;;;;;;5072029;28;20055;-60
2023/08/27 04:33:16;;;;;;;5.65;2.20;;;17.10;99.90;;;;;;5071886;28;20397;-60
2023/08/27 04:35:44;;;;;;;4.35;2.33;;;17.00;99.90;;;;;;5071100;28;20028;-60
2023/08/27 04:38:10;;;;;;;6.25;2.30;;;17.10;99.90;;;;;;5071797;28;20067;-60
2023/08/27 04:40:36;;;;;;;8.30;2.70;;;17.10;99.90;;;;;;5071729;28;20025;-60
2023/08/27 04:43:02;;;;;;;5.35;2.38;;;17.10;99.90;;;;;;5072006;28;20031;-59
2023/08/27 04:45:28;;;;;;;4.68;2.40;;;17.10;99.90;;;;;;5071341;28;20397;-60
2023/08/27 04:47:54;;;;;;;7.10;2.30;;;17.00;99.90;;;;;;5071665;28;20056;-60
2023/08/27 04:50:20;;;;;;;5.50;2.28;;;17.00;99.90;;;;;;5071231;28;20035;-60
2023/08/27 04:52:46;;;;;;;6.70;2.00;;;17.20;99.90;;;;;;5071962;28;20040;-60
2023/08/27 04:55:11;;;;;;;6.05;1.92;;;17.50;99.90;;;;;;5071513;28;20378;-60
2023/08/27 04:57:37;;;;;;;4.32;1.70;;;17.80;99.90;;;;;;5053491;28;20056;-60
2023/08/27 05:00:07;;;;;;;4.22;1.70;;;18.00;99.90;;;;;;5071467;28;20477;-59
2023/08/27 05:02:33;;;;;;;6.90;1.95;;;18.00;99.90;;;;;;5071329;28;20024;-60
2023/08/27 05:04:59;;;;;;;8.02;2.20;;;17.90;99.90;;;;;;5071093;28;20099;-60
2023/08/27 05:07:24;;;;;;;8.35;1.80;;;17.90;99.90;;;;;;5071768;28;20111;-60
2023/08/27 05:09:50;;;;;;;9.68;2.50;;;17.80;99.90;;;;;;5071012;28;20032;-60
2023/08/27 05:12:16;;;;;;;6.22;2.13;;;17.70;99.90;;;;;;5071630;28;20067;-60
2023/08/27 05:14:41;;;;;;;7.03;2.25;;;17.70;99.90;;;;;;5071002;28;20043;-60
2023/08/27 05:17:07;;;;;;;5.63;2.15;;;17.60;99.90;;;;;;5071286;28;20115;-59
2023/08/27 05:19:33;;;;;;;6.03;2.50;;;17.60;99.90;;;;;;5071230;28;20047;-60
2023/08/27 05:22:01;;;;;;;6.95;2.10;;;17.60;99.90;;;;;;5053200;28;20032;-60
2023/08/27 05:24:26;;;;;;;5.47;2.10;;;17.40;99.90;;;;;;5071064;28;20031;-60
2023/08/27 05:26:52;;;;;;;5.40;2.30;;;17.30;99.90;;;;;;5070854;28;20456;-60
2023/08/27 05:29:17;;;;;;;6.47;2.30;;;17.20;99.90;;;;;;5071157;28;20434;-60
2023/08/27 05:31:43;;;;;;;6.32;2.25;;;17.00;99.90;;;;;;5071367;28;20374;-60
2023/08/27 05:34:09;;;;;;;8.57;3.17;;;16.90;99.90;;;;;;5070803;28;20036;-60
2023/08/27 05:36:35;;;;;;;3.78;2.20;;;16.80;99.90;;;;;;5071137;28;20028;-60
2023/08/27 05:39:00;;;;;;;7.40;2.40;;;16.90;99.90;;;;;;5070973;28;20097;-60
2023/08/27 05:41:26;;;;;;;5.47;1.92;;;16.90;99.90;;;;;;5071352;28;20025;-59
2023/08/27 05:43:52;;;;;;;6.82;2.33;;;16.90;99.90;;;;;;5070998;28;20025;-60
2023/08/27 05:46:18;;;;;;;6.68;2.50;;;16.90;99.90;;;;;;5073203;28;20393;-60
2023/08/27 05:48:43;;;;;;;5.57;2.42;;;16.90;99.90;;;;;;5074537;28;20029;-60
2023/08/27 05:51:09;;;;;;;6.75;2.60;;;16.90;99.90;;;;;;5075086;28;20035;-60
2023/08/27 05:53:35;;;;;;;4.45;2.60;;;16.90;99.90;;;;;;5074964;28;20021;-59
2023/08/27 05:56:01;;;;;;;5.00;3.08;;;16.90;99.90;;;;;;5075208;28;20043;-58
2023/08/27 05:58:26;;;;;;;8.60;3.30;;;16.90;99.90;;;;;;5074737;28;20777;-59
2023/08/27 06:00:56;;;;;;;6.18;2.90;;;16.90;99.90;;;;;;5074691;28;20064;-60
2023/08/27 06:03:22;;;;;;;5.03;2.83;;;16.90;99.90;;;;;;5074579;28;20029;-60
2023/08/27 06:05:48;;;;;;;6.78;2.80;;;17.00;99.90;;;;;;5074992;28;20037;-59
2023/08/27 06:08:13;;;;;;;5.15;2.83;;;16.90;99.90;;;;;;5074520;28;20055;-60
2023/08/27 06:10:39;;;;;;;6.50;3.00;;;17.10;99.90;;;;;;5074683;28;20104;-59
2023/08/27 06:13:05;;;;;;;5.82;2.60;;;17.20;99.90;;;;;;5074634;28;20074;-59
2023/08/27 06:15:32;;;;;;;5.65;2.67;;;17.30;99.90;;;;;;5066252;28;20496;-60
2023/08/27 06:18:02;;;;;;;5.93;2.60;;;17.40;99.90;;;;;;5074087;28;20028;-60
2023/08/27 06:20:29;;;;;;;4.75;2.38;;;17.50;99.90;;;;;;5074622;28;20036;-60
2023/08/27 06:22:54;;;;;;;6.22;2.42;;;17.50;99.90;;;;;;5074224;28;20040;-60
2023/08/27 06:25:23;;;;;;;8.73;2.70;;;17.60;99.90;;;;;;5074507;28;20104;-60
2023/08/27 06:27:49;;;;;;;7.82;2.30;;;17.60;99.90;;;;;;5074283;28;20053;-60
2023/08/27 06:30:15;;;;;;;7.07;2.50;;;17.70;99.90;;;;;;5074155;28;20103;-60
2023/08/27 06:32:40;;;;;;;5.13;2.70;;;17.80;99.90;;;;;;5073975;28;20115;-60
2023/08/27 06:35:06;;;;;;;6.32;2.60;;;17.80;99.90;;;;;;5074256;28;20025;-60
2023/08/27 06:37:32;;;;;;;4.47;2.50;;;17.80;99.90;;;;;;5073820;28;20044;-59
2023/08/27 06:39:57;;;;;;;5.68;2.92;;;17.80;99.90;;;;;;5074477;28;20036;-60
2023/08/27 06:42:23;;;;;;;7.30;2.95;;;17.70;99.90;;;;;;5073935;28;20032;-60
2023/08/27 06:44:49;;;;;;;8.30;3.40;;;17.60;99.90;;;;;;5073998;28;20024;-59
2023/08/27 06:47:14;;;;;;;5.28;3.03;;;17.50;99.90;;;;;;5073732;28;20032;-60
2023/08/27 06:49:40;;;;;;;6.65;2.80;;;17.50;99.90;;;;;;5073850;28;20029;-60
2023/08/27 06:52:06;;;;;;;5.88;2.90;;;17.60;99.90;;;;;;5073890;28;20025;-60
2023/08/27 06:54:32;;;;;;;3.85;2.70;;;17.60;99.90;;;;;;5074176;28;20089;-60
2023/08/27 06:56:57;;;;;;;4.82;2.70;;;17.60;99.90;;;;;;5073080;28;20036;-60
2023/08/27 06:59:23;;;;;;;5.75;2.85;;;17.60;99.90;;;;;;5073538;28;20035;-59
2023/08/27 07:01:49;;;;;;;5.57;2.40;;;17.70;99.90;;;;;;5073347;28;20143;-59
2023/08/27 07:04:14;;;;;;;4.97;2.70;;;17.70;99.90;;;;;;5073688;28;20028;-59
2023/08/27 07:06:40;;;;;;;5.25;2.30;;;17.80;99.90;;;;;;5073621;28;20029;-60
2023/08/27 07:09:06;;;;;;;4.18;2.33;;;17.90;99.90;;;;;;5073959;28;20033;-60
2023/08/27 07:11:33;;;;;;;4.22;1.95;;;17.90;99.90;;;;;;5073388;28;20068;-60
2023/08/27 07:13:59;;;;;;;5.35;1.90;;;17.90;99.90;;;;;;5073432;28;20031;-60
2023/08/27 07:16:26;;;;;;;6.38;2.25;;;18.00;99.90;;;;;;5072996;28;20036;-59
2023/08/27 07:18:52;;;;;;;8.00;2.20;;;18.00;99.90;;;;;;5073467;28;20040;-58
2023/08/27 07:21:18;;;;;;;7.03;2.22;;;18.00;99.90;;;;;;5073148;28;20485;-58
2023/08/27 07:23:44;;;;;;;5.22;1.80;;;18.00;99.90;;;;;;5073291;28;20028;-59
2023/08/27 07:26:11;;;;;;;5.75;2.10;;;18.00;99.90;;;;;;5073306;28;20072;-59
2023/08/27 07:28:37;;;;;;;5.53;1.75;;;17.90;99.90;;;;;;5073125;28;20025;-58
2023/08/27 07:31:04;;;;;;;5.32;1.90;;;18.10;99.90;;;;;;5072797;28;20489;-59
2023/08/27 07:33:30;;;;;;;3.78;1.52;;;18.40;99.90;;;;;;5072902;28;20024;-59
2023/08/27 07:35:55;;;;;;;5.40;1.58;;;18.50;99.90;;;;;;5072926;28;20508;-58
2023/08/27 07:38:25;;;;;;;4.53;1.80;;;18.80;99.90;;;;;;5072810;28;20111;-59
2023/08/27 07:40:51;;;;;;;4.28;1.60;;;19.00;99.90;;;;;;5073273;28;20029;-59
2023/08/27 07:43:17;;;;;;;5.40;1.80;;;19.20;99.90;;;;;;5072636;28;20089;-58
2023/08/27 07:45:42;;;;;;;7.82;1.92;;;19.30;99.90;;;;;;5072955;28;20048;-58
2023/08/27 07:48:08;;;;;;;6.07;1.55;;;19.30;99.90;;;;;;5072844;28;20525;-59
2023/08/27 07:50:34;;;;;;;5.18;1.77;;;19.30;99.90;;;;;;5073129;28;20406;-58
2023/08/27 07:52:59;;;;;;;4.53;1.60;;;19.20;99.90;;;;;;5072772;28;20085;-59
2023/08/27 07:55:31;;;;;;;5.15;1.92;;;19.10;99.90;;;;;;5072721;28;20033;-58
2023/08/27 07:57:57;;;;;;;4.07;1.50;;;19.10;99.90;;;;;;5072267;28;20032;-59
2023/08/27 08:00:22;;;;;;;4.32;1.60;;;19.20;99.90;;;;;;5072587;28;20107;-58
2023/08/27 08:02:48;;;;;;;4.28;1.80;;;19.10;99.90;;;;;;5072479;28;20163;-59
2023/08/27 08:05:14;;;;;;;5.03;1.48;;;19.00;99.90;;;;;;5072886;28;20043;-59
2023/08/27 08:07:40;;;;;;;5.95;2.03;;;18.90;99.90;;;;;;5072370;28;20025;-59
2023/08/27 08:10:06;;;;;;;3.10;1.50;;;18.90;99.90;;;;;;5071296;28;20480;-59
2023/08/27 08:12:32;;;;;;;3.92;1.70;;;18.80;99.90;;;;;;5054154;28;20028;-59
2023/08/27 08:14:58;;;;;;;4.95;1.60;;;18.70;99.90;;;;;;5072109;28;20025;-59
2023/08/27 08:17:23;;;;;;;4.07;1.40;;;18.70;99.90;;;;;;5072008;28;20043;-59
2023/08/27 08:19:50;;;;;;;3.53;1.55;;;18.70;99.90;;;;;;5072256;28;20492;-58
2023/08/27 08:22:16;;;;;;;4.93;1.70;;;18.70;99.90;;;;;;5072437;28;20074;-58
2023/08/27 08:24:42;;;;;;;3.53;1.63;;;18.70;99.90;;;;;;5072376;28;20531;-59
2023/08/27 08:27:08;;;;;;;3.88;1.70;;;18.80;99.90;;;;;;5071758;28;20053;-59
2023/08/27 08:29:34;;;;;;;6.00;1.83;;;18.80;99.90;;;;;;5071974;28;20027;-59
2023/08/27 08:32:00;;;;;;;4.80;1.55;;;18.80;99.90;;;;;;5072046;28;20058;-59
2023/08/27 08:34:28;;;;;;;5.85;1.83;;;18.90;99.90;;;;;;5072035;28;20442;-58
2023/08/27 08:36:55;;;;;;;5.80;1.70;;;19.00;99.90;;;;;;5071709;28;20123;-58
2023/08/27 08:39:20;;;;;;;3.75;1.50;;;19.00;99.90;;;;;;5071826;28;20477;-59
2023/08/27 08:42:20;;;;;;;5.05;1.80;;;19.10;99.90;;;;;;5071815;28;20032;-59
2023/08/27 08:44:57;;;;;;;4.93;1.98;;;19.10;99.90;;;;;;5071646;28;20036;-59
2023/08/27 08:47:25;;;;;;;4.82;1.90;;;19.20;99.90;;;;;;5071594;28;20027;-58
2023/08/27 08:49:57;;;;;;;7.45;2.13;;;19.30;99.90;;;;;;5071926;28;20035;-59
2023/08/27 08:52:27;;;;;;;5.80;1.92;;;19.50;99.90;;;;;;5071613;28;20035;-58
2023/08/27 08:54:54;;;;;;;3.83;1.77;;;19.60;99.90;;;;;;5071557;28;20103;-59
2023/08/27 08:57:23;;;;;;;7.72;2.05;;;19.80;99.90;;;;;;5071527;28;20032;-58
2023/08/27 08:59:51;;;;;;;6.47;2.00;;;19.80;99.90;;;;;;5071546;28;20020;-58
2023/08/27 09:02:18;;;;;;;5.10;1.75;;;19.80;99.90;;;;;;5071211;28;20467;-59
2023/08/27 09:04:44;;;;;;;8.32;1.95;;;19.90;99.90;;;;;;5071390;28;20111;-59
2023/08/27 09:07:10;;;;;;;4.57;1.77;;;20.00;99.90;;;;;;5071789;28;20035;-59
2023/08/27 09:09:39;;;;;;;4.15;1.70;;;20.10;99.90;;;;;;5071394;28;20025;-59
2023/08/27 09:12:08;;;;;;;5.00;2.08;;;20.10;99.90;;;;;;5071133;28;20028;-59
2023/08/27 09:14:35;;;;;;;6.20;2.22;;;20.20;99.90;;;;;;5063171;28;20090;-59
2023/08/27 09:17:01;;;;;;;6.40;2.33;;;20.30;99.90;;;;;;5071293;28;20116;-58
2023/08/27 09:19:27;;;;;;;4.82;1.77;;;20.30;99.90;;;;;;5071463;28;20099;-58
2023/08/27 09:21:52;;;;;;;5.00;1.85;;;20.30;99.90;;;;;;5070849;28;20032;-58
2023/08/27 09:24:18;;;;;;;7.93;2.42;;;20.20;99.90;;;;;;5071243;28;20527;-59
2023/08/27 09:26:44;;;;;;;7.43;2.53;;;20.10;99.90;;;;;;5070937;28;20623;-59
2023/08/27 09:29:10;;;;;;;6.00;2.20;;;20.00;99.90;;;;;;5071103;28;20028;-59
2023/08/27 09:31:40;;;;;;;6.80;2.22;;;20.00;99.90;;;;;;5071051;28;20020;-58
2023/08/27 09:34:06;;;;;;;9.05;2.10;;;19.90;99.90;;;;;;5071458;28;20520;-59
2023/08/27 09:36:35;;;;;;;5.93;2.00;;;20.00;99.90;;;;;;5070883;28;20389;-59
2023/08/27 09:39:07;;;;;;;4.65;1.70;;;20.00;99.90;;;;;;5071160;28;20095;-59
2023/08/27 09:41:37;;;;;;;7.28;2.40;;;20.00;99.90;;;;;;5070536;28;20013;-59
2023/08/27 09:44:03;;;;;;;8.07;2.30;;;20.00;99.90;;;;;;5070813;28;20060;-59
2023/08/27 09:46:29;;;;;;;4.80;1.90;;;20.10;99.90;;;;;;5071011;28;20059;-59
2023/08/27 09:49:04;;;;;;;5.68;1.90;;;20.10;99.90;;;;;;5070890;28;20032;-59
2023/08/27 09:51:33;;;;;;;5.68;2.17;;;20.10;99.90;;;;;;5071103;28;20025;-59
2023/08/27 09:53:59;;;;;;;5.55;2.22;;;20.10;99.90;;;;;;5071043;28;20020;-59
2023/08/27 09:56:26;;;;;;;4.70;1.90;;;20.20;99.90;;;;;;5070888;28;20397;-58
2023/08/27 09:58:55;;;;;;;5.38;2.10;;;20.20;99.90;;;;;;5070754;28;20040;-58
2023/08/27 10:01:33;;;;;;;4.55;1.80;;;20.30;99.90;;;;;;5070787;28;20473;-59
2023/08/27 10:04:03;;;;;;;5.22;1.63;;;20.40;99.90;;;;;;5070817;28;20622;-59
2023/08/27 10:06:35;;;;;;;6.60;2.20;;;20.40;99.90;;;;;;5071200;28;20016;-59
2023/08/27 10:09:00;;;;;;;5.28;1.70;;;20.40;99.90;;;;;;5070595;28;20409;-58
2023/08/27 10:11:27;;;;;;;5.28;1.63;;;20.50;99.90;;;;;;5070727;28;20024;-59
2023/08/27 10:13:54;;;;;;;5.68;2.17;;;20.70;99.90;;;;;;5071009;28;20035;-59
2023/08/27 10:16:20;;;;;;;4.00;1.70;;;21.00;99.90;;;;;;5070583;28;20439;-59
2023/08/27 10:18:47;;;;;;;5.95;2.00;;;21.10;99.90;;;;;;5070502;28;20443;-59
2023/08/27 10:21:13;;;;;;;6.65;1.85;;;21.30;99.90;;;;;;5071044;28;20078;-59
2023/08/27 10:23:40;;;;;;;6.05;1.95;;;21.40;99.90;;;;;;5070403;28;20028;-59
2023/08/27 10:26:06;;;;;;;6.32;1.70;;;21.30;99.90;;;;;;5070506;28;20128;-59
2023/08/27 10:28:35;;;;;;;7.25;1.90;;;21.20;99.90;;;;;;5070872;28;20092;-59
2023/08/27 10:31:05;;;;;;;5.70;1.70;;;20.70;99.90;;;;;;5070440;28;20040;-58
2023/08/27 10:33:31;;;;;;;6.07;1.60;;;20.20;99.90;;;;;;5072723;28;20028;-59
2023/08/27 10:36:04;;;;;;;3.25;1.65;;;20.30;99.90;;;;;;5074311;28;20056;-58
2023/08/27 10:38:33;;;;;;;5.05;1.70;;;20.20;99.90;;;;;;5073766;28;20036;-59
2023/08/27 10:41:00;;;;;;;4.50;1.70;;;20.30;99.90;;;;;;5056388;28;20032;-59
2023/08/27 10:43:35;;;;;;;2.88;1.40;;;20.40;99.90;;;;;;5073956;28;20036;-59
2023/08/27 10:46:11;;;;;;;4.78;1.70;;;20.30;99.90;;;;;;5074022;28;20078;-59
2023/08/27 10:48:38;;;;;;;6.47;2.30;;;20.30;99.90;;;;;;5074149;28;20146;-59
2023/08/27 10:51:09;;;;;;;6.05;1.63;;;20.40;99.90;;;;;;5073857;28;20036;-59
2023/08/27 10:53:46;;;;;;;4.65;1.45;;;20.60;99.90;;;;;;5073897;28;20436;-59
2023/08/27 10:56:36;;;;;;;5.68;1.67;;;20.60;99.90;;;;;;5073902;28;20064;-59
2023/08/27 10:59:11;;;;;;;6.90;1.90;;;20.50;99.90;;;;;;5073987;28;20048;-59
2023/08/27 11:01:59;;;;;;;4.43;1.67;;;20.50;99.90;;;;;;5073878;28;20021;-59
2023/08/27 11:04:39;;;;;;;5.43;1.67;;;20.60;99.90;;;;;;5073739;28;20033;-59
2023/08/27 11:07:15;;;;;;;8.82;2.17;;;20.70;99.90;;;;;;5073739;28;20067;-59
2023/08/27 11:09:46;;;;;;;5.70;1.42;;;20.80;99.90;;;;;;5073505;28;20040;-58
2023/08/27 11:12:23;;;;;;;4.85;1.90;;;20.70;99.90;;;;;;5073385;28;20044;-59
2023/08/27 11:14:48;;;;;;;5.72;1.80;;;20.60;99.90;;;;;;5073402;28;20016;-59
2023/08/27 11:17:32;;;;;;;7.00;1.80;;;20.60;99.90;;;;;;5073526;28;20105;-58
2023/08/27 11:20:16;;;;;;;;;;;20.70;99.90;;;;;;5073782;28;20039;-58
2023/08/27 11:22:57;;;;;;;4.47;1.48;;;21.00;99.90;;;;;;5073152;28;19904;-59
2023/08/27 11:25:26;;;;;;;5.35;1.67;;;21.10;99.90;;;;;;5073656;28;20409;-59
2023/08/27 11:27:53;;;;;;;4.75;1.85;;;21.10;99.90;;;;;;5073090;28;20045;-59
2023/08/27 11:30:19;;;;;;;5.70;1.77;;;21.40;99.90;;;;;;5073146;28;20402;-59
2023/08/27 11:32:45;;;;;;;4.72;1.52;;;21.60;99.90;;;;;;5073245;28;20074;-58
2023/08/27 11:35:14;;;;;;;3.78;1.60;;;21.60;99.90;;;;;;5073472;28;20037;-60
2023/08/27 11:37:40;;;;;;;5.53;1.90;;;21.50;99.90;;;;;;5055040;28;20044;-58
2023/08/27 11:40:15;;;;;;;4.30;2.03;;;21.40;99.90;;;;;;5072881;28;20521;-59
2023/08/27 11:42:54;;;;;;;4.45;1.50;;;21.40;99.90;;;;;;5073031;28;20024;-59
2023/08/27 11:45:30;;;;;;;9.52;1.85;;;21.20;99.90;;;;;;5072773;28;20020;-59
2023/08/27 11:47:57;;;;;;;6.10;1.90;;;20.90;99.90;;;;;;5072913;28;20021;-59
2023/08/27 11:50:23;;;;;;;5.25;1.90;;;20.70;99.90;;;;;;5072365;28;20024;-58
2023/08/27 11:52:49;;;;;;;5.30;2.00;;;20.60;99.90;;;;;;5072766;28;20039;-59
2023/08/27 11:55:20;;;;;;;7.13;2.10;;;20.60;99.90;;;;;;5072680;28;20446;-59
2023/08/27 11:57:46;;;;;;;6.78;2.15;;;20.60;99.90;;;;;;5072538;28;20028;-60
2023/08/27 12:00:12;;;;;;;5.85;2.00;;;20.60;99.90;;;;;;5072836;28;20037;-59
2023/08/27 12:02:41;;;;;;;8.77;3.15;;;20.60;99.90;;;;;;5072407;28;20037;-59
2023/08/27 12:05:08;;;;;;;5.38;1.90;;;20.70;99.90;;;;;;5072881;28;20493;-59
2023/08/27 12:07:35;;;;;;;6.43;1.90;;;20.60;99.90;;;;;;5072396;28;20111;-59
2023/08/27 12:10:11;;;;;;;5.60;1.60;;;20.60;99.90;;;;;;5072370;28;20028;-59
2023/08/27 12:12:41;;;;;;;5.47;1.70;;;20.80;99.90;;;;;;5072529;28;20032;-59
2023/08/27 12:15:08;;;;;;;4.68;1.58;;;20.90;99.90;;;;;;5072345;28;20028;-58
2023/08/27 12:17:35;;;;;;;4.28;1.75;;;21.10;99.90;;;;;;5072131;28;20378;-59
2023/08/27 12:20:06;;;;;;;6.00;2.00;;;21.30;99.90;;;;;;5072209;28;20028;-58
2023/08/27 12:22:43;;;;;;;4.10;1.70;;;21.40;99.90;;;;;;5072659;28;20033;-60
2023/08/27 12:25:09;;;;;;;6.40;1.80;;;21.20;99.90;;;;;;5072171;28;20058;-59
2023/08/27 12:27:34;;;;;;;5.18;1.75;;;21.10;99.90;;;;;;5053920;28;20048;-59
2023/08/27 12:30:00;;;;;;;4.43;1.40;;;21.20;99.90;;;;;;5072461;28;20032;-59
2023/08/27 12:32:32;;;;;;;5.18;1.60;;;21.30;99.90;;;;;;5072062;28;20035;-59
2023/08/27 12:34:58;;;;;;;4.80;1.80;;;21.40;99.90;;;;;;5071746;28;20094;-59
2023/08/27 12:37:25;;;;;;;4.10;1.40;;;21.60;99.90;;;;;;5071905;28;20024;-59
2023/08/27 12:39:51;;;;;;;4.18;1.60;;;21.40;99.90;;;;;;5071633;28;20489;-59
2023/08/27 12:42:17;;;;;;;4.95;1.67;;;21.40;99.90;;;;;;5071843;28;20032;-59
2023/08/27 12:44:44;;;;;;;4.60;1.65;;;21.40;99.90;;;;;;5071680;28;20501;-59
2023/08/27 12:47:11;;;;;;;3.30;1.55;;;21.40;99.90;;;;;;5071754;28;20024;-59
2023/08/27 12:49:37;;;;;;;5.07;1.30;;;21.40;99.90;;;;;;5071569;28;20032;-59